Startpagina
METAR-TAF:

METAR-TAF

Vliegvelden :

Pärnu, Estland

breedte: 58-25-09N, lengte: 024-28-22E, hoogte: 14 m

Actueel weer

Dit bericht is 21 minuten geleden gemaakt, om 11:50 UTC
Wind 7 kt uit het oostzuidoosten, variërend tussen het oostnoordoosten en het zuiden
Temperatuur -1°C
Vochtigheid 74%
Druk 1028 hPa
Zicht 10 km of meer
Weinig wolken op 2000 ft

METAR: EEPU 221150Z 12007KT 070V170 9999 FEW020 M01/M05 Q1028

Tijdstip: 14:11 (12:11 UTC)


TAF: ontbreekt

Waarnemingen en weersverwachtingen van meer dan 4000 vliegvelden (METAR en TAF).

De beschikbare stations zijn de gele en rode punten op de kaart.

Ga met uw muis naar het station om de naam te zien.

Klik dan om waarnemingen en weersverwachtingen te zien.

kaart wijzigen: klik op de groene knoppen met een zwart kruis om in te zoomen, op de groene knop met een streepje om uit te zoomen of op de groene pijlen voor aangrenzende kaarten.


METAR-TAF: